createdAt,value
2018-12-08T00:00:59.177Z,47.93
2018-12-08T00:03:32.440Z,78.70
2018-12-08T00:06:06.729Z,29.77
2018-12-08T00:08:41.021Z,20.60
2018-12-08T00:11:13.506Z,17.63
2018-12-08T00:13:46.830Z,38.13
2018-12-08T00:16:19.352Z,54.27
2018-12-08T00:18:53.493Z,50.80
2018-12-08T00:21:32.334Z,21.63
2018-12-08T00:24:07.839Z,32.87
2018-12-08T00:26:47.002Z,24.57
2018-12-08T00:29:21.016Z,18.87
2018-12-08T00:31:54.134Z,15.97
2018-12-08T00:34:27.027Z,47.67
2018-12-08T00:37:01.061Z,37.80
2018-12-08T00:39:33.948Z,21.43
2018-12-08T00:42:06.291Z,24.53
2018-12-08T00:44:38.603Z,22.37
2018-12-08T00:47:10.675Z,17.80
2018-12-08T00:49:44.457Z,27.43
2018-12-08T00:52:16.924Z,31.67
2018-12-08T00:54:49.212Z,39.63
2018-12-08T00:57:21.566Z,42.67
2018-12-08T00:59:54.635Z,52.10
2018-12-08T01:02:27.002Z,64.67
2018-12-08T01:05:00.292Z,62.37
2018-12-08T01:07:33.491Z,53.10
2018-12-08T01:10:07.416Z,49.60
2018-12-08T01:12:39.884Z,49.23
2018-12-08T01:15:15.841Z,40.70
2018-12-08T01:17:48.467Z,31.20
2018-12-08T01:20:25.532Z,31.10
2018-12-08T01:26:24.970Z,34.40
2018-12-08T01:29:01.112Z,35.57
2018-12-08T01:31:34.738Z,30.83
2018-12-08T01:34:07.547Z,34.50
2018-12-08T01:40:02.715Z,35.87
2018-12-08T01:42:36.748Z,31.80
2018-12-08T01:45:11.468Z,32.73
2018-12-08T01:47:44.393Z,29.43
2018-12-08T01:50:21.892Z,27.03
2018-12-08T01:52:55.636Z,27.23
2018-12-08T01:55:31.149Z,28.70
2018-12-08T01:58:04.129Z,29.87
2018-12-08T02:00:40.768Z,27.67
2018-12-08T02:03:14.812Z,30.77
2018-12-08T02:05:49.611Z,35.47
2018-12-08T02:08:27.211Z,25.07
2018-12-08T02:11:05.637Z,17.53
2018-12-08T02:13:38.906Z,20.37
2018-12-08T02:16:14.168Z,17.93
2018-12-08T02:18:49.191Z,16.70
2018-12-08T02:21:26.552Z,17.30
2018-12-08T02:24:00.445Z,16.50
2018-12-08T02:30:11.490Z,26.57
2018-12-08T02:32:53.893Z,25.90
2018-12-08T02:35:26.936Z,23.67
2018-12-08T02:38:00.861Z,26.73
2018-12-08T02:40:35.359Z,26.20
2018-12-08T02:46:30.042Z,23.90
2018-12-08T02:49:05.241Z,23.20
2018-12-08T02:51:40.155Z,26.37
2018-12-08T02:54:12.918Z,27.60
2018-12-08T02:56:49.311Z,27.27
2018-12-08T02:59:22.964Z,29.80
2018-12-08T03:01:57.107Z,27.97
2018-12-08T03:04:33.223Z,25.40
2018-12-08T03:07:41.534Z,29.47
2018-12-08T03:10:15.466Z,25.20
2018-12-08T03:12:50.708Z,22.03
2018-12-08T03:15:26.894Z,22.77
2018-12-08T03:17:59.665Z,29.50
2018-12-08T03:20:33.201Z,30.53
2018-12-08T03:23:06.166Z,26.13
2018-12-08T03:25:40.269Z,22.40
2018-12-08T03:28:12.994Z,20.10
2018-12-08T03:30:46.275Z,18.63
2018-12-08T03:33:19.011Z,15.50
2018-12-08T03:35:52.245Z,17.00
2018-12-08T03:38:24.998Z,16.87
2018-12-08T03:40:58.504Z,15.03
2018-12-08T03:43:31.921Z,15.07
2018-12-08T03:46:05.211Z,13.90
2018-12-08T03:48:38.452Z,14.77
2018-12-08T03:51:14.208Z,15.40
2018-12-08T03:53:51.234Z,13.23
2018-12-08T03:56:27.516Z,13.43
2018-12-08T03:59:02.442Z,15.53
2018-12-08T04:01:38.471Z,14.83
2018-12-08T04:04:13.815Z,15.53
2018-12-08T04:06:51.934Z,15.43
2018-12-08T04:09:25.477Z,13.80
2018-12-08T04:12:01.491Z,13.90
2018-12-08T04:14:38.932Z,13.53
2018-12-08T04:17:13.147Z,13.47
2018-12-08T04:19:45.709Z,14.43
2018-12-08T04:29:08.225Z,14.03
2018-12-08T04:31:40.587Z,11.73
2018-12-08T04:34:12.991Z,12.73
2018-12-08T04:36:45.345Z,14.10
2018-12-08T04:39:20.105Z,14.17
2018-12-08T04:41:53.602Z,13.73
2018-12-08T04:44:29.167Z,14.33
2018-12-08T04:47:01.537Z,15.17
2018-12-08T04:52:56.291Z,16.83
2018-12-08T04:55:30.758Z,15.37
2018-12-08T04:58:03.607Z,16.73
2018-12-08T05:00:37.745Z,14.47
2018-12-08T05:03:11.176Z,15.43
2018-12-08T05:05:44.136Z,15.87
2018-12-08T05:08:17.310Z,14.93
2018-12-08T05:14:12.630Z,25.60
2018-12-08T05:16:44.769Z,36.23
2018-12-08T05:19:16.896Z,41.73
2018-12-08T05:21:49.395Z,115.53
2018-12-08T05:24:21.742Z,152.30
2018-12-08T05:26:54.910Z,140.53
2018-12-08T05:29:27.244Z,101.63
2018-12-08T05:31:59.439Z,89.10
2018-12-08T05:34:31.745Z,48.10
2018-12-08T05:37:04.123Z,31.07
2018-12-08T05:39:36.618Z,21.23
2018-12-08T05:42:09.829Z,18.10
2018-12-08T05:44:42.221Z,17.17
2018-12-08T05:47:14.750Z,17.07
2018-12-08T05:49:47.008Z,15.97
2018-12-08T05:52:19.266Z,16.10
2018-12-08T05:54:51.767Z,15.63
2018-12-08T05:57:26.477Z,15.67
2018-12-08T06:00:01.366Z,16.50
2018-12-08T06:02:33.768Z,18.57
2018-12-08T06:05:05.891Z,17.90
2018-12-08T06:07:38.179Z,18.70
2018-12-08T06:10:10.603Z,18.50
2018-12-08T06:12:42.939Z,17.30
2018-12-08T06:15:15.042Z,16.23
2018-12-08T06:17:47.171Z,15.47
2018-12-08T06:20:19.465Z,16.40
2018-12-08T06:22:51.663Z,15.53
2018-12-08T06:25:29.757Z,16.37
2018-12-08T06:28:25.592Z,15.10
2018-12-08T06:30:58.254Z,15.97
2018-12-08T06:33:31.584Z,15.20
2018-12-08T06:36:03.806Z,14.00
2018-12-08T06:38:36.001Z,14.83
2018-12-08T06:41:08.699Z,14.87
2018-12-08T06:43:40.786Z,16.03
2018-12-08T06:46:14.066Z,15.63
2018-12-08T06:52:07.805Z,15.00
2018-12-08T06:54:40.238Z,15.23
2018-12-08T06:57:12.744Z,14.60
2018-12-08T06:59:45.178Z,14.97
2018-12-08T07:02:17.700Z,14.33
2018-12-08T07:04:50.704Z,23.10
2018-12-08T07:07:24.266Z,130.93
2018-12-08T07:09:58.100Z,64.63
2018-12-08T07:12:30.691Z,35.50
2018-12-08T07:15:04.137Z,27.53
2018-12-08T07:17:37.904Z,20.73
2018-12-08T07:20:10.681Z,16.63
2018-12-08T07:22:43.205Z,17.50
2018-12-08T07:25:15.753Z,20.03
2018-12-08T07:27:48.253Z,19.20
2018-12-08T07:30:20.774Z,50.10
2018-12-08T07:32:54.274Z,111.73
2018-12-08T07:35:26.771Z,110.93
2018-12-08T07:38:00.225Z,52.30
2018-12-08T07:40:32.869Z,35.13
2018-12-08T07:43:05.460Z,30.20
2018-12-08T07:45:38.005Z,26.23
2018-12-08T07:48:11.072Z,23.33
2018-12-08T07:50:43.637Z,23.03
2018-12-08T07:53:17.847Z,24.63
2018-12-08T07:55:50.315Z,22.87
2018-12-08T07:58:22.764Z,23.20
2018-12-08T08:00:56.551Z,44.00
2018-12-08T08:03:29.040Z,46.27
2018-12-08T08:06:01.735Z,41.60
2018-12-08T08:08:34.188Z,47.53
2018-12-08T08:11:07.618Z,43.03
2018-12-08T08:13:40.083Z,25.70
2018-12-08T08:16:12.550Z,25.07
2018-12-08T08:18:44.977Z,22.20
2018-12-08T08:21:17.634Z,21.20
2018-12-08T08:23:50.047Z,20.20
2018-12-08T08:26:22.490Z,20.50
2018-12-08T08:28:55.020Z,20.70
2018-12-08T08:31:28.571Z,20.77
2018-12-08T08:34:10.429Z,21.70
2018-12-08T08:36:43.113Z,22.63
2018-12-08T08:39:15.765Z,19.70
2018-12-08T08:41:48.393Z,20.77
2018-12-08T08:44:28.710Z,19.97
2018-12-08T08:47:11.364Z,21.60
2018-12-08T08:49:48.123Z,20.53
2018-12-08T08:52:26.485Z,21.50
2018-12-08T08:55:00.240Z,21.87
2018-12-08T08:57:33.381Z,22.50
2018-12-08T09:00:06.220Z,23.97
2018-12-08T09:02:38.726Z,21.77
2018-12-08T09:05:11.559Z,23.80
2018-12-08T09:07:44.199Z,25.00
2018-12-08T09:10:17.515Z,23.20
2018-12-08T09:12:50.104Z,24.53
2018-12-08T09:18:47.836Z,26.77
2018-12-08T09:21:20.708Z,27.97
2018-12-08T09:23:53.460Z,28.73
2018-12-08T09:29:47.131Z,67.13
2018-12-08T09:32:19.546Z,37.70
2018-12-08T09:34:51.986Z,32.03
2018-12-08T09:37:24.377Z,30.70
2018-12-08T09:39:57.335Z,27.80
2018-12-08T09:42:29.821Z,28.63
2018-12-08T09:45:02.209Z,32.20
2018-12-08T09:50:56.033Z,32.67
2018-12-08T09:53:29.118Z,29.00
2018-12-08T09:56:01.632Z,33.13
2018-12-08T09:58:34.466Z,27.77
2018-12-08T10:01:07.082Z,25.63
2018-12-08T10:03:39.658Z,26.37
2018-12-08T10:09:43.881Z,29.07
2018-12-08T10:12:16.969Z,29.17
2018-12-08T10:14:49.906Z,31.03
2018-12-08T10:17:22.910Z,31.00
2018-12-08T10:19:55.691Z,29.20
2018-12-08T10:22:28.702Z,28.13
2018-12-08T10:25:02.134Z,28.40
2018-12-08T10:27:35.044Z,27.43
2018-12-08T10:30:09.301Z,26.73
2018-12-08T10:32:42.294Z,24.83
2018-12-08T10:38:47.385Z,27.97
2018-12-08T10:41:20.161Z,34.17
2018-12-08T10:43:52.828Z,34.20
2018-12-08T10:46:25.621Z,34.63
2018-12-08T10:48:58.437Z,32.00
2018-12-08T10:52:04.048Z,29.73
2018-12-08T10:54:36.632Z,31.57
2018-12-08T10:57:09.173Z,31.40
2018-12-08T10:59:42.493Z,31.33
2018-12-08T11:02:19.411Z,28.77
2018-12-08T11:04:52.981Z,29.07
2018-12-08T11:07:25.672Z,31.53
2018-12-08T11:09:59.060Z,31.47
2018-12-08T11:12:33.008Z,32.40
2018-12-08T11:15:05.817Z,37.30
2018-12-08T11:17:38.385Z,37.33
2018-12-08T11:23:32.495Z,30.17
2018-12-08T11:29:26.756Z,28.30
2018-12-08T11:31:59.651Z,28.10
2018-12-08T11:34:32.799Z,26.70
2018-12-08T11:37:05.744Z,29.10
2018-12-08T11:39:38.870Z,31.80
2018-12-08T11:42:11.876Z,30.73
2018-12-08T11:44:46.082Z,28.83
2018-12-08T11:47:19.896Z,29.57
2018-12-08T11:49:53.022Z,29.60
2018-12-08T11:52:26.085Z,32.83
2018-12-08T11:54:59.586Z,32.97
2018-12-08T11:57:32.739Z,33.37
2018-12-08T12:00:06.466Z,36.63
2018-12-08T12:02:39.363Z,32.57
2018-12-08T12:05:12.282Z,29.90
2018-12-08T12:07:46.476Z,30.03
2018-12-08T12:10:19.404Z,27.50
2018-12-08T12:12:52.632Z,28.47
2018-12-08T12:15:30.419Z,27.33
2018-12-08T12:18:03.539Z,27.03
2018-12-08T12:20:36.710Z,28.53
2018-12-08T12:23:09.863Z,27.70
2018-12-08T12:25:43.312Z,27.37
2018-12-08T12:28:16.534Z,38.10
2018-12-08T12:30:50.455Z,29.53
2018-12-08T12:33:23.512Z,29.20
2018-12-08T12:35:59.820Z,29.43
2018-12-08T12:38:32.920Z,26.83
2018-12-08T12:41:06.577Z,30.07
2018-12-08T12:43:39.760Z,30.03
2018-12-08T12:46:12.859Z,27.03
2018-12-08T12:48:46.013Z,26.20
2018-12-08T12:51:20.161Z,27.10
2018-12-08T12:53:53.425Z,22.83
2018-12-08T12:56:27.053Z,22.50
2018-12-08T12:59:00.284Z,21.70
2018-12-08T13:01:33.673Z,16.90
2018-12-08T13:04:06.766Z,19.30
2018-12-08T13:06:39.851Z,18.63
2018-12-08T13:09:17.158Z,21.33
2018-12-08T13:11:50.736Z,39.87
2018-12-08T13:14:26.307Z,43.30
2018-12-08T13:17:01.796Z,29.17
2018-12-08T13:19:45.934Z,28.70
2018-12-08T13:22:20.175Z,20.93
2018-12-08T13:28:24.162Z,15.67
2018-12-08T13:30:56.970Z,16.03
2018-12-08T13:33:30.270Z,13.97
2018-12-08T13:36:03.977Z,14.47
2018-12-08T13:38:37.461Z,15.07
2018-12-08T13:41:10.172Z,14.67
2018-12-08T13:43:45.185Z,11.33
2018-12-08T13:46:17.784Z,13.17
2018-12-08T13:48:50.545Z,11.67
2018-12-08T13:51:23.221Z,13.83
2018-12-08T13:53:56.738Z,12.93
2018-12-08T13:56:35.532Z,11.20
2018-12-08T13:59:10.582Z,10.93
2018-12-08T14:01:52.180Z,9.80
2018-12-08T14:04:24.810Z,10.20
2018-12-08T14:07:04.737Z,9.07
2018-12-08T14:09:37.431Z,10.57
2018-12-08T14:12:10.713Z,9.50
2018-12-08T14:14:43.306Z,7.50
2018-12-08T14:17:15.924Z,8.03
2018-12-08T14:19:48.502Z,7.43
2018-12-08T14:22:21.060Z,6.60
2018-12-08T14:24:53.638Z,6.53
2018-12-08T14:27:27.615Z,6.30
2018-12-08T14:30:00.173Z,5.00
2018-12-08T14:32:32.787Z,5.53
2018-12-08T14:35:09.024Z,8.43
2018-12-08T14:37:42.348Z,6.50
2018-12-08T14:40:14.909Z,7.13
2018-12-08T14:42:51.846Z,5.83
2018-12-08T14:45:24.415Z,6.13
2018-12-08T14:47:56.975Z,5.83
2018-12-08T14:50:32.573Z,6.63
2018-12-08T14:53:05.634Z,6.70
2018-12-08T14:55:38.935Z,6.03
2018-12-08T14:58:12.884Z,6.83
2018-12-08T15:00:50.014Z,6.70
2018-12-08T15:03:27.262Z,8.90
2018-12-08T15:06:18.311Z,7.43
2018-12-08T15:09:06.744Z,7.37
2018-12-08T15:12:13.255Z,6.67
2018-12-08T15:14:55.384Z,5.67
2018-12-08T15:20:25.551Z,8.47
2018-12-08T15:23:02.199Z,7.50
2018-12-08T15:25:46.440Z,6.33
2018-12-08T15:28:41.302Z,7.20
2018-12-08T15:37:32.910Z,7.13
2018-12-08T15:51:36.453Z,8.07
2018-12-08T15:54:11.306Z,7.70
2018-12-08T15:56:45.459Z,7.50
2018-12-08T15:59:18.354Z,7.03
2018-12-08T16:01:56.084Z,7.93
2018-12-08T16:04:32.120Z,7.75
2018-12-08T16:07:06.495Z,7.40
2018-12-08T16:09:40.174Z,7.80
2018-12-08T16:12:14.255Z,7.53
2018-12-08T16:14:59.626Z,8.20
2018-12-08T16:17:32.384Z,7.58
2018-12-08T16:20:12.072Z,7.10
2018-12-08T16:22:46.344Z,6.40
2018-12-08T16:25:22.417Z,7.12
2018-12-08T16:27:57.482Z,5.78
2018-12-08T16:30:30.421Z,7.58
2018-12-08T16:33:04.198Z,6.67
2018-12-08T16:35:36.998Z,6.87
2018-12-08T16:38:11.594Z,5.78
2018-12-08T16:40:44.293Z,7.23
2018-12-08T16:43:23.835Z,5.83
2018-12-08T16:46:02.004Z,6.10
2018-12-08T16:48:36.117Z,5.40
2018-12-08T16:51:08.764Z,6.60
2018-12-08T16:53:56.593Z,6.53
2018-12-08T16:56:32.007Z,5.28
2018-12-08T16:59:05.579Z,5.92
2018-12-08T17:01:38.221Z,5.90
2018-12-08T17:04:10.796Z,6.05
2018-12-08T17:06:44.785Z,5.97
2018-12-08T17:09:17.880Z,6.10
2018-12-08T17:11:50.900Z,5.33
2018-12-08T17:14:23.808Z,5.53
2018-12-08T17:16:57.554Z,6.78
2018-12-08T17:19:32.294Z,5.60
2018-12-08T17:22:05.439Z,8.50
2018-12-08T17:24:38.168Z,5.80
2018-12-08T17:27:11.445Z,5.72
2018-12-08T17:29:44.838Z,5.85
2018-12-08T17:32:17.430Z,6.55
2018-12-08T17:34:50.041Z,6.25
2018-12-08T17:37:24.770Z,5.75
2018-12-08T17:39:57.429Z,7.12
2018-12-08T17:42:30.183Z,5.83
2018-12-08T17:45:04.412Z,6.17
2018-12-08T17:47:38.440Z,6.85
2018-12-08T17:53:42.440Z,5.33
2018-12-08T17:56:15.208Z,7.08
2018-12-08T17:58:59.306Z,6.90
2018-12-08T18:01:35.804Z,10.65
2018-12-08T18:04:08.409Z,7.95
2018-12-08T18:06:44.749Z,7.85
2018-12-08T18:09:17.428Z,6.87
2018-12-08T18:11:51.388Z,7.30
2018-12-08T18:17:46.308Z,7.47
2018-12-08T18:20:19.200Z,6.70
2018-12-08T18:22:51.802Z,6.05
2018-12-08T18:25:24.499Z,7.10
2018-12-08T18:27:57.189Z,7.28
2018-12-08T18:30:29.905Z,7.67
2018-12-08T18:33:07.011Z,6.87
2018-12-08T18:35:41.524Z,6.03
2018-12-08T18:38:14.252Z,6.47
2018-12-08T18:40:46.959Z,5.35
2018-12-08T18:43:21.137Z,7.37
2018-12-08T18:45:53.969Z,6.15
2018-12-08T18:48:27.404Z,6.03
2018-12-08T18:50:59.978Z,6.05
2018-12-08T18:53:33.360Z,6.35
2018-12-08T18:56:06.071Z,6.60
2018-12-08T18:58:38.780Z,6.17
2018-12-08T19:01:11.940Z,6.17
2018-12-08T19:03:47.377Z,6.60
2018-12-08T19:06:20.217Z,6.80
2018-12-08T19:08:53.181Z,7.05
2018-12-08T19:11:27.880Z,6.97
2018-12-08T19:14:01.250Z,6.47
2018-12-08T19:16:34.750Z,6.28
2018-12-08T19:19:09.511Z,7.92
2018-12-08T19:21:42.168Z,6.97
2018-12-08T19:24:14.765Z,9.18
2018-12-08T19:26:47.394Z,8.30
2018-12-08T19:29:19.962Z,8.20
2018-12-08T19:31:52.718Z,8.30
2018-12-08T19:34:25.369Z,7.92
2018-12-08T19:36:58.015Z,8.83
2018-12-08T19:39:30.675Z,7.20
2018-12-08T19:42:03.402Z,8.13
2018-12-08T19:44:37.341Z,8.20
2018-12-08T19:47:09.908Z,8.15
2018-12-08T19:49:43.886Z,7.50
2018-12-08T19:52:19.751Z,7.62
2018-12-08T19:58:35.864Z,8.85
2018-12-08T20:01:08.810Z,10.18
2018-12-08T20:03:42.038Z,8.23
2018-12-08T20:06:14.954Z,7.40
2018-12-08T20:08:49.586Z,7.45
2018-12-08T20:11:24.170Z,7.70
2018-12-08T20:15:00.015Z,7.85
2018-12-08T20:17:34.243Z,8.97
2018-12-08T20:20:07.339Z,7.25
2018-12-08T20:22:40.754Z,8.45
2018-12-08T20:25:13.691Z,7.95
2018-12-08T20:27:46.492Z,9.10
2018-12-08T20:30:19.211Z,7.80
2018-12-08T20:32:52.793Z,8.10
2018-12-08T20:35:26.509Z,10.25
2018-12-08T20:37:59.370Z,6.78
2018-12-08T20:40:32.087Z,9.33
2018-12-08T20:43:04.854Z,9.80
2018-12-08T20:45:37.606Z,9.83
2018-12-08T20:48:12.324Z,8.20
2018-12-08T20:50:46.041Z,9.08
2018-12-08T20:53:21.187Z,9.95
2018-12-08T20:55:54.207Z,8.95
2018-12-08T20:58:29.116Z,9.93
2018-12-08T21:01:02.065Z,8.53
2018-12-08T21:03:35.738Z,8.60
2018-12-08T21:06:08.889Z,9.75
2018-12-08T21:08:43.166Z,8.23
2018-12-08T21:11:17.065Z,11.43
2018-12-08T21:13:51.122Z,8.48
2018-12-08T21:16:24.851Z,9.13
2018-12-08T21:18:57.692Z,12.53
2018-12-08T21:21:36.767Z,8.33
2018-12-08T21:24:15.661Z,9.23
2018-12-08T21:26:54.127Z,11.08
2018-12-08T21:29:27.937Z,9.13
2018-12-08T21:32:01.246Z,11.12
2018-12-08T21:34:38.422Z,11.40
2018-12-08T21:37:12.228Z,11.95
2018-12-08T21:39:49.328Z,9.77
2018-12-08T21:42:30.342Z,11.03
2018-12-08T21:45:09.588Z,10.35
2018-12-08T21:47:47.520Z,8.70
2018-12-08T21:50:23.146Z,11.03
2018-12-08T22:00:34.559Z,8.10
2018-12-08T22:03:09.225Z,7.97
2018-12-08T22:05:45.878Z,7.43
2018-12-08T22:08:20.928Z,9.40
2018-12-08T22:10:54.840Z,9.23
2018-12-08T22:13:28.870Z,9.28
2018-12-08T22:16:02.735Z,7.42
2018-12-08T22:18:39.606Z,9.33
2018-12-08T22:21:20.148Z,7.60
2018-12-08T22:23:54.559Z,7.93
2018-12-08T22:26:42.770Z,15.65
2018-12-08T22:29:19.198Z,17.93
2018-12-08T22:31:54.408Z,18.43
2018-12-08T22:34:28.039Z,19.20
2018-12-08T22:37:06.300Z,21.27
2018-12-08T22:39:42.301Z,20.33
2018-12-08T22:42:15.349Z,24.20
2018-12-08T22:44:51.048Z,21.70
2018-12-08T22:47:32.781Z,22.63
2018-12-08T22:50:07.275Z,23.40
2018-12-08T22:52:40.940Z,24.67
2018-12-08T22:55:15.527Z,24.20
2018-12-08T22:57:48.410Z,23.10
2018-12-08T23:00:48.719Z,25.93
2018-12-08T23:03:22.704Z,25.73
2018-12-08T23:05:56.436Z,27.10
2018-12-08T23:08:30.939Z,26.87
2018-12-08T23:11:05.811Z,28.77
2018-12-08T23:13:41.080Z,27.87
2018-12-08T23:16:15.508Z,26.23
2018-12-08T23:18:49.562Z,26.93
2018-12-08T23:21:29.308Z,25.63
2018-12-08T23:26:42.930Z,28.67
2018-12-08T23:29:16.490Z,27.47
2018-12-08T23:31:59.850Z,28.77
2018-12-08T23:34:33.634Z,32.70
2018-12-08T23:37:21.716Z,32.73
2018-12-08T23:42:49.327Z,29.17
2018-12-08T23:48:27.123Z,32.00
2018-12-08T23:51:10.783Z,30.80
2018-12-08T23:53:46.899Z,32.60
2018-12-08T23:56:22.040Z,34.50
